createdAt,value
2023-04-24T00:02:03.377Z,9.75
2023-04-24T00:04:36.981Z,9.72
2023-04-24T00:07:10.170Z,9.69
2023-04-24T00:09:43.710Z,9.68
2023-04-24T00:12:17.742Z,9.65
2023-04-24T00:14:52.774Z,9.61
2023-04-24T00:17:25.170Z,9.56
2023-04-24T00:19:59.730Z,9.54
2023-04-24T00:22:34.307Z,9.51
2023-04-24T00:25:08.526Z,9.51
2023-04-24T00:27:41.169Z,9.50
2023-04-24T00:30:15.667Z,9.47
2023-04-24T00:32:48.940Z,9.40
2023-04-24T00:35:22.726Z,9.34
2023-04-24T00:37:56.369Z,9.31
2023-04-24T00:40:29.253Z,9.29
2023-04-24T00:43:01.807Z,9.25
2023-04-24T00:45:34.512Z,9.21
2023-04-24T00:48:06.929Z,9.16
2023-04-24T00:50:42.712Z,9.10
2023-04-24T00:53:18.911Z,9.07
2023-04-24T00:55:52.053Z,9.06
2023-04-24T00:58:25.288Z,9.02
2023-04-24T01:00:58.775Z,9.00
2023-04-24T01:03:34.006Z,8.98
2023-04-24T01:06:09.103Z,8.98
2023-04-24T01:08:44.102Z,8.92
2023-04-24T01:11:17.887Z,8.90
2023-04-24T01:13:51.830Z,8.89
2023-04-24T01:16:24.815Z,8.90
2023-04-24T01:18:57.743Z,8.93
2023-04-24T01:21:32.944Z,8.96
2023-04-24T01:24:07.778Z,8.99
2023-04-24T01:26:40.570Z,8.99
2023-04-24T01:29:15.614Z,8.99
2023-04-24T01:31:51.246Z,9.01
2023-04-24T01:34:23.960Z,9.02
2023-04-24T01:36:57.640Z,9.02
2023-04-24T01:39:30.296Z,9.01
2023-04-24T01:42:03.960Z,8.99
2023-04-24T01:44:37.618Z,8.95
2023-04-24T01:47:10.716Z,8.91
2023-04-24T01:49:43.714Z,8.88
2023-04-24T01:52:20.682Z,8.85
2023-04-24T01:54:57.053Z,8.83
2023-04-24T01:57:31.823Z,8.81
2023-04-24T02:00:08.678Z,8.81
2023-04-24T02:02:48.616Z,8.78
2023-04-24T02:05:23.562Z,8.76
2023-04-24T02:07:57.270Z,8.75
2023-04-24T02:10:29.911Z,8.74
2023-04-24T02:13:06.099Z,8.71
2023-04-24T02:15:38.710Z,8.65
2023-04-24T02:18:11.470Z,8.55
2023-04-24T02:20:45.666Z,8.47
2023-04-24T02:23:19.588Z,8.40
2023-04-24T02:25:54.420Z,8.36
2023-04-24T02:28:26.776Z,8.33
2023-04-24T02:31:01.672Z,8.30
2023-04-24T02:33:34.433Z,8.26
2023-04-24T02:36:09.230Z,8.19
2023-04-24T02:38:41.862Z,8.15
2023-04-24T02:41:14.786Z,8.12
2023-04-24T02:43:49.843Z,8.10
2023-04-24T02:46:22.183Z,8.10
2023-04-24T02:48:57.280Z,8.12
2023-04-24T02:51:30.284Z,8.12
2023-04-24T02:54:03.129Z,8.13
2023-04-24T02:56:37.492Z,8.11
2023-04-24T02:59:11.710Z,8.05
2023-04-24T03:01:45.520Z,8.02
2023-04-24T03:04:21.628Z,8.00
2023-04-24T03:06:56.053Z,7.98
2023-04-24T03:09:28.723Z,7.97
2023-04-24T03:12:02.796Z,7.96
2023-04-24T03:14:37.128Z,7.96
2023-04-24T03:17:10.022Z,7.97
2023-04-24T03:19:43.817Z,7.98
2023-04-24T03:22:17.228Z,8.00
2023-04-24T03:24:49.796Z,8.02
2023-04-24T03:27:25.351Z,8.05
2023-04-24T03:30:03.645Z,8.10
2023-04-24T03:32:47.335Z,8.16
2023-04-24T03:35:23.234Z,8.25
2023-04-24T03:37:56.325Z,8.35
2023-04-24T03:40:48.031Z,8.42
2023-04-24T03:43:45.822Z,8.50
2023-04-24T03:46:34.778Z,8.58
2023-04-24T03:49:09.005Z,8.65
2023-04-24T03:51:47.812Z,8.75
2023-04-24T03:54:24.135Z,8.85
2023-04-24T03:56:57.625Z,8.94
2023-04-24T03:59:34.398Z,9.03
2023-04-24T04:02:27.867Z,9.16
2023-04-24T04:05:00.654Z,9.26
2023-04-24T04:07:37.327Z,9.37
2023-04-24T04:10:11.599Z,9.47
2023-04-24T04:12:46.572Z,9.57
2023-04-24T04:15:19.210Z,9.69
2023-04-24T04:17:51.777Z,9.81
2023-04-24T04:20:25.395Z,10.34
2023-04-24T04:22:58.077Z,11.15
2023-04-24T04:25:41.491Z,11.95
2023-04-24T04:28:23.927Z,13.07
2023-04-24T04:30:56.935Z,14.32
2023-04-24T04:33:29.941Z,15.02
2023-04-24T04:36:06.921Z,15.77
2023-04-24T04:38:43.061Z,16.61
2023-04-24T04:41:27.503Z,17.33
2023-04-24T04:44:00.560Z,18.14
2023-04-24T04:46:35.545Z,19.05
2023-04-24T04:49:18.174Z,19.77
2023-04-24T04:51:53.764Z,20.51
2023-04-24T04:54:26.826Z,20.73
2023-04-24T04:57:00.064Z,21.00
2023-04-24T04:59:32.718Z,21.67
2023-04-24T05:02:14.309Z,22.46
2023-04-24T05:04:47.478Z,23.41
2023-04-24T05:07:20.953Z,24.20
2023-04-24T05:09:58.247Z,25.00
2023-04-24T05:12:30.995Z,25.21
2023-04-24T05:15:04.289Z,24.57
2023-04-24T05:17:37.140Z,24.60
2023-04-24T05:20:11.677Z,25.40
2023-04-24T05:22:45.967Z,26.11
2023-04-24T05:25:19.933Z,26.48
2023-04-24T05:27:58.765Z,26.96
2023-04-24T05:30:31.571Z,27.12
2023-04-24T05:33:04.807Z,26.80
2023-04-24T05:35:47.252Z,27.06
2023-04-24T05:38:20.878Z,26.21
2023-04-24T05:40:54.873Z,24.70
2023-04-24T05:43:27.725Z,23.85
2023-04-24T05:46:01.699Z,23.19
2023-04-24T05:48:34.354Z,22.96
2023-04-24T05:51:09.005Z,22.54
2023-04-24T05:53:41.450Z,22.27
2023-04-24T05:56:15.045Z,21.74
2023-04-24T05:58:47.786Z,21.15
2023-04-24T06:01:20.928Z,20.81
2023-04-24T06:03:58.602Z,20.82
2023-04-24T06:06:36.980Z,21.21
2023-04-24T06:09:09.922Z,21.08
2023-04-24T06:11:42.930Z,20.64
2023-04-24T06:14:16.577Z,20.15
2023-04-24T06:17:11.482Z,19.80
2023-04-24T06:19:51.250Z,19.59
2023-04-24T06:22:25.186Z,19.46
2023-04-24T06:24:59.449Z,19.35
2023-04-24T06:27:34.444Z,19.22
2023-04-24T06:30:09.623Z,19.20
2023-04-24T06:32:43.258Z,19.28
2023-04-24T06:35:15.636Z,19.51
2023-04-24T06:37:49.144Z,19.82
2023-04-24T06:40:21.981Z,20.73
2023-04-24T06:42:54.255Z,21.65
2023-04-24T06:45:26.461Z,22.90
2023-04-24T06:47:59.496Z,24.30
2023-04-24T06:50:31.884Z,25.29
2023-04-24T06:53:04.320Z,25.88
2023-04-24T06:55:37.906Z,26.17
2023-04-24T06:58:09.366Z,25.99
2023-04-24T07:00:41.889Z,25.67
2023-04-24T07:03:17.338Z,25.06
2023-04-24T07:05:54.578Z,24.08
2023-04-24T07:08:27.619Z,23.19
2023-04-24T07:10:59.892Z,22.23
2023-04-24T07:13:32.255Z,21.50
2023-04-24T07:16:05.193Z,21.22
2023-04-24T07:18:39.686Z,21.00
2023-04-24T07:21:12.510Z,20.85
2023-04-24T07:23:45.290Z,20.83
2023-04-24T07:26:18.206Z,20.94
2023-04-24T07:28:50.875Z,20.92
2023-04-24T07:31:23.405Z,21.50
2023-04-24T07:33:59.279Z,23.13
2023-04-24T07:36:34.547Z,23.42
2023-04-24T07:39:08.495Z,22.73
2023-04-24T07:41:43.632Z,22.34
2023-04-24T07:44:16.798Z,22.27
2023-04-24T07:46:53.666Z,22.81
2023-04-24T07:49:26.340Z,23.59
2023-04-24T07:51:58.816Z,24.43
2023-04-24T07:54:31.433Z,24.69
2023-04-24T07:57:04.013Z,24.74
2023-04-24T07:59:36.505Z,24.57
2023-04-24T08:02:09.078Z,24.81
2023-04-24T08:04:41.984Z,25.28
2023-04-24T08:07:18.197Z,25.16
2023-04-24T08:09:52.111Z,24.92
2023-04-24T08:12:25.824Z,24.38
2023-04-24T08:14:58.284Z,23.96
2023-04-24T08:17:31.960Z,23.47
2023-04-24T08:20:06.406Z,23.26
2023-04-24T08:22:38.988Z,23.14
2023-04-24T08:25:13.404Z,23.13
2023-04-24T08:27:46.566Z,22.88
2023-04-24T08:30:19.646Z,22.61
2023-04-24T08:32:53.357Z,22.23
2023-04-24T08:35:26.130Z,21.98
2023-04-24T08:37:58.442Z,21.77
2023-04-24T08:40:36.511Z,21.62
2023-04-24T08:43:09.442Z,21.59
2023-04-24T08:45:42.690Z,21.58
2023-04-24T08:48:27.726Z,21.58
2023-04-24T08:51:05.405Z,21.70
2023-04-24T08:53:38.519Z,21.83
2023-04-24T08:56:11.749Z,21.91
2023-04-24T08:58:47.371Z,21.92
2023-04-24T09:01:21.239Z,22.44
2023-04-24T09:03:59.243Z,23.09
2023-04-24T09:06:36.154Z,23.37
2023-04-24T09:09:08.766Z,23.58
2023-04-24T09:11:42.285Z,23.69
2023-04-24T09:14:16.986Z,23.82
2023-04-24T09:16:50.755Z,23.75
2023-04-24T09:19:23.519Z,23.75
2023-04-24T09:21:56.947Z,23.97
2023-04-24T09:24:27.756Z,24.68
2023-04-24T09:27:03.844Z,25.13
2023-04-24T09:29:36.352Z,25.24
2023-04-24T09:32:26.228Z,25.42
2023-04-24T09:35:13.519Z,25.65
2023-04-24T09:37:48.089Z,25.83
2023-04-24T09:40:22.516Z,26.27
2023-04-24T09:42:59.113Z,26.50
2023-04-24T09:45:39.375Z,26.38
2023-04-24T09:48:14.345Z,26.18
2023-04-24T09:50:50.991Z,26.10
2023-04-24T09:53:28.602Z,26.29
2023-04-24T09:56:09.382Z,26.63
2023-04-24T09:58:43.057Z,26.84
2023-04-24T10:01:17.718Z,26.68
2023-04-24T10:03:52.990Z,26.31
2023-04-24T10:06:33.070Z,26.24
2023-04-24T10:09:06.644Z,26.32
2023-04-24T10:11:43.808Z,26.42
2023-04-24T10:14:19.208Z,26.76
2023-04-24T10:16:55.234Z,27.00
2023-04-24T10:19:29.454Z,27.03
2023-04-24T10:22:03.009Z,27.10
2023-04-24T10:24:37.328Z,27.22
2023-04-24T10:27:10.514Z,27.30
2023-04-24T10:29:41.417Z,27.56
2023-04-24T10:32:14.904Z,27.62
2023-04-24T10:34:47.598Z,27.76
2023-04-24T10:37:19.126Z,27.94
2023-04-24T10:39:56.050Z,28.12
2023-04-24T10:42:32.051Z,28.22
2023-04-24T10:45:11.637Z,27.96
2023-04-24T10:48:04.340Z,27.76
2023-04-24T10:50:50.705Z,28.03
2023-04-24T10:53:25.424Z,28.41
2023-04-24T10:56:05.036Z,28.70
2023-04-24T10:58:46.158Z,28.70
2023-04-24T11:01:30.494Z,28.67
2023-04-24T11:04:06.097Z,28.90
2023-04-24T11:06:39.860Z,29.10
2023-04-24T11:09:14.257Z,28.93
2023-04-24T11:11:51.151Z,28.76
2023-04-24T11:14:23.569Z,28.92
2023-04-24T11:16:57.500Z,28.95
2023-04-24T11:19:32.287Z,29.08
2023-04-24T11:22:06.995Z,29.06
2023-04-24T11:24:52.166Z,28.58
2023-04-24T11:27:32.160Z,28.58
2023-04-24T11:30:06.133Z,28.60
2023-04-24T11:32:41.546Z,28.49
2023-04-24T11:35:18.045Z,28.48
2023-04-24T11:38:13.084Z,28.07
2023-04-24T11:40:47.236Z,27.80
2023-04-24T11:43:21.359Z,27.62
2023-04-24T11:45:55.404Z,27.15
2023-04-24T11:48:28.257Z,27.01
2023-04-24T11:51:04.063Z,27.13
2023-04-24T11:53:38.565Z,27.22
2023-04-24T11:56:12.605Z,26.95
2023-04-24T11:58:45.950Z,26.63
2023-04-24T12:01:18.304Z,26.33
2023-04-24T12:04:02.237Z,26.12
2023-04-24T12:06:35.248Z,25.92
2023-04-24T12:09:17.775Z,25.84
2023-04-24T12:11:59.286Z,25.43
2023-04-24T12:14:31.738Z,25.04
2023-04-24T12:17:07.000Z,24.73
2023-04-24T12:19:47.965Z,24.44
2023-04-24T12:22:21.037Z,24.22
2023-04-24T12:25:04.312Z,24.01
2023-04-24T12:27:37.088Z,23.78
2023-04-24T12:30:15.371Z,23.66
2023-04-24T12:32:51.564Z,23.51
2023-04-24T12:35:28.792Z,23.26
2023-04-24T12:38:10.243Z,22.85
2023-04-24T12:40:44.228Z,22.43
2023-04-24T12:43:20.566Z,21.94
2023-04-24T12:45:53.528Z,21.45
2023-04-24T12:48:26.993Z,21.03
2023-04-24T12:51:02.834Z,20.76
2023-04-24T12:53:35.501Z,20.51
2023-04-24T12:56:10.425Z,20.32
2023-04-24T12:58:44.695Z,20.26
2023-04-24T13:01:17.096Z,20.35
2023-04-24T13:03:50.475Z,20.39
2023-04-24T13:06:27.711Z,20.52
2023-04-24T13:09:00.419Z,20.59
2023-04-24T13:11:32.987Z,20.60
2023-04-24T13:14:05.365Z,20.68
2023-04-24T13:16:47.686Z,20.81
2023-04-24T13:19:20.326Z,20.83
2023-04-24T13:21:53.463Z,20.88
2023-04-24T13:24:27.223Z,20.92
2023-04-24T13:27:00.298Z,21.00
2023-04-24T13:29:33.922Z,21.12
2023-04-24T13:32:07.017Z,21.26
2023-04-24T13:34:40.320Z,21.26
2023-04-24T13:37:18.427Z,21.37
2023-04-24T13:39:58.789Z,21.51
2023-04-24T13:42:31.686Z,21.65
2023-04-24T13:45:21.338Z,21.83
2023-04-24T13:48:04.298Z,21.91
2023-04-24T13:50:36.669Z,22.08
2023-04-24T13:53:09.407Z,22.14
2023-04-24T13:55:41.880Z,22.28
2023-04-24T13:58:16.211Z,22.29
2023-04-24T14:00:51.969Z,22.32
2023-04-24T14:03:25.190Z,22.34
2023-04-24T14:05:58.792Z,22.35
2023-04-24T14:08:31.261Z,22.28
2023-04-24T14:11:04.629Z,22.17
2023-04-24T14:13:38.073Z,22.16
2023-04-24T14:16:11.134Z,22.26
2023-04-24T14:18:46.198Z,22.29
2023-04-24T14:21:18.618Z,22.31
2023-04-24T14:23:51.688Z,22.37
2023-04-24T14:26:25.831Z,22.39
2023-04-24T14:29:11.642Z,22.50
2023-04-24T14:31:49.892Z,22.64
2023-04-24T14:34:22.738Z,22.67
2023-04-24T14:36:58.684Z,22.77
2023-04-24T14:39:31.395Z,22.80
2023-04-24T14:42:04.027Z,22.86
2023-04-24T14:44:42.768Z,22.87
2023-04-24T14:47:16.236Z,22.74
2023-04-24T14:49:51.552Z,22.72
2023-04-24T14:52:23.899Z,22.71
2023-04-24T14:54:56.374Z,22.72
2023-04-24T14:57:29.247Z,22.71
2023-04-24T15:00:02.162Z,22.64
2023-04-24T15:02:35.150Z,22.60
2023-04-24T15:05:10.208Z,22.60
2023-04-24T15:07:43.751Z,22.57
2023-04-24T15:10:18.917Z,22.56
2023-04-24T15:12:49.828Z,22.52
2023-04-24T15:15:22.553Z,22.45
2023-04-24T15:17:56.438Z,22.38
2023-04-24T15:20:29.226Z,22.32
2023-04-24T15:23:03.439Z,22.21
2023-04-24T15:25:39.157Z,22.16
2023-04-24T15:28:11.780Z,22.13
2023-04-24T15:30:45.957Z,22.05
2023-04-24T15:33:19.159Z,21.95
2023-04-24T15:35:52.512Z,21.85
2023-04-24T15:38:25.173Z,21.72
2023-04-24T15:40:57.623Z,21.55
2023-04-24T15:43:35.448Z,21.41
2023-04-24T15:46:11.374Z,21.29
2023-04-24T15:48:46.107Z,21.14
2023-04-24T15:51:18.461Z,21.02
2023-04-24T15:53:51.444Z,20.88
2023-04-24T15:56:24.606Z,20.75
2023-04-24T15:58:57.059Z,20.60
2023-04-24T16:01:29.703Z,20.47
2023-04-24T16:04:02.488Z,20.35
2023-04-24T16:06:35.148Z,20.24
2023-04-24T16:09:08.826Z,20.10
2023-04-24T16:11:41.763Z,19.96
2023-04-24T16:14:14.139Z,19.82
2023-04-24T16:16:49.426Z,19.69
2023-04-24T16:19:21.914Z,19.56
2023-04-24T16:21:56.670Z,19.43
2023-04-24T16:24:29.598Z,19.31
2023-04-24T16:27:04.635Z,19.19
2023-04-24T16:29:37.200Z,19.12
2023-04-24T16:32:10.588Z,19.04
2023-04-24T16:34:43.345Z,18.96
2023-04-24T16:37:16.611Z,18.90
2023-04-24T16:39:55.299Z,18.84
2023-04-24T16:42:33.573Z,18.80
2023-04-24T16:45:08.642Z,18.75
2023-04-24T16:47:43.721Z,18.71
2023-04-24T16:50:16.875Z,18.64
2023-04-24T16:52:54.099Z,18.53
2023-04-24T16:55:27.810Z,18.45
2023-04-24T16:57:58.779Z,18.34
2023-04-24T17:00:31.647Z,18.23
2023-04-24T17:03:06.783Z,18.12
2023-04-24T17:05:39.625Z,18.00
2023-04-24T17:08:12.676Z,17.87
2023-04-24T17:10:46.313Z,17.71
2023-04-24T17:13:18.962Z,17.55
2023-04-24T17:15:51.315Z,17.38
2023-04-24T17:18:24.848Z,17.23
2023-04-24T17:20:57.215Z,17.08
2023-04-24T17:23:29.686Z,16.91
2023-04-24T17:26:02.321Z,16.73
2023-04-24T17:28:36.654Z,16.56
2023-04-24T17:31:10.084Z,16.35
2023-04-24T17:33:42.542Z,16.17
2023-04-24T17:36:14.978Z,16.02
2023-04-24T17:38:48.461Z,15.88
2023-04-24T17:41:21.837Z,15.74
2023-04-24T17:43:54.461Z,15.59
2023-04-24T17:46:27.467Z,15.44
2023-04-24T17:49:00.296Z,15.29
2023-04-24T17:51:33.003Z,15.20
2023-04-24T17:54:05.622Z,15.10
2023-04-24T17:56:38.529Z,15.03
2023-04-24T17:59:12.360Z,14.93
2023-04-24T18:01:47.959Z,14.85
2023-04-24T18:04:20.735Z,14.78
2023-04-24T18:06:53.498Z,14.69
2023-04-24T18:09:26.307Z,14.58
2023-04-24T18:11:58.646Z,14.51
2023-04-24T18:14:31.677Z,14.43
2023-04-24T18:17:05.489Z,14.35
2023-04-24T18:19:38.769Z,14.26
2023-04-24T18:22:13.622Z,14.18
2023-04-24T18:24:50.612Z,14.08
2023-04-24T18:27:29.412Z,13.95
2023-04-24T18:30:03.776Z,13.84
2023-04-24T18:32:36.409Z,13.74
2023-04-24T18:35:10.957Z,13.67
2023-04-24T18:37:43.439Z,13.59
2023-04-24T18:40:18.685Z,13.53
2023-04-24T18:42:51.661Z,13.47
2023-04-24T18:45:24.411Z,13.43
2023-04-24T18:47:57.211Z,13.42
2023-04-24T18:50:32.000Z,13.41
2023-04-24T18:53:04.529Z,13.41
2023-04-24T18:55:37.504Z,13.43
2023-04-24T18:58:12.685Z,13.46
2023-04-24T19:00:48.064Z,13.48
2023-04-24T19:03:20.995Z,13.51
2023-04-24T19:05:54.283Z,13.55
2023-04-24T19:08:26.610Z,13.63
2023-04-24T19:10:59.063Z,13.70
2023-04-24T19:13:31.556Z,13.78
2023-04-24T19:16:04.823Z,13.82
2023-04-24T19:18:38.178Z,13.90
2023-04-24T19:21:10.988Z,13.97
2023-04-24T19:23:46.648Z,14.04
2023-04-24T19:26:19.229Z,14.12
2023-04-24T19:28:53.781Z,14.17
2023-04-24T19:31:28.888Z,14.20
2023-04-24T19:34:06.568Z,14.23
2023-04-24T19:36:43.957Z,14.26
2023-04-24T19:39:17.196Z,14.29
2023-04-24T19:41:51.162Z,14.29
2023-04-24T19:44:23.894Z,14.25
2023-04-24T19:46:56.281Z,14.20
2023-04-24T19:49:29.220Z,14.17
2023-04-24T19:52:02.184Z,14.14
2023-04-24T19:54:36.755Z,14.12
2023-04-24T19:57:11.553Z,14.09
2023-04-24T19:59:44.182Z,14.09
2023-04-24T20:02:17.064Z,14.07
2023-04-24T20:04:51.089Z,13.97
2023-04-24T20:07:24.270Z,13.89
2023-04-24T20:09:58.124Z,13.86
2023-04-24T20:12:36.376Z,13.83
2023-04-24T20:15:12.111Z,13.79
2023-04-24T20:17:48.122Z,13.73
2023-04-24T20:20:20.770Z,13.64
2023-04-24T20:22:53.482Z,13.57
2023-04-24T20:25:26.220Z,13.53
2023-04-24T20:27:58.862Z,13.48
2023-04-24T20:30:32.729Z,13.38
2023-04-24T20:33:05.584Z,13.32
2023-04-24T20:35:38.275Z,13.28
2023-04-24T20:38:11.725Z,13.20
2023-04-24T20:40:57.279Z,13.11
2023-04-24T20:43:31.155Z,13.05
2023-04-24T20:46:04.037Z,12.99
2023-04-24T20:48:36.705Z,12.93
2023-04-24T20:51:09.330Z,12.85
2023-04-24T20:53:49.754Z,12.78
2023-04-24T20:56:24.945Z,12.74
2023-04-24T20:58:59.155Z,12.66
2023-04-24T21:01:30.581Z,12.58
2023-04-24T21:04:05.994Z,12.50
2023-04-24T21:06:38.553Z,12.44
2023-04-24T21:09:12.635Z,12.41
2023-04-24T21:11:46.517Z,12.41
2023-04-24T21:14:22.052Z,12.41
2023-04-24T21:16:56.722Z,12.43
2023-04-24T21:19:29.851Z,12.44
2023-04-24T21:22:02.425Z,12.45
2023-04-24T21:24:34.952Z,12.45
2023-04-24T21:27:08.117Z,12.43
2023-04-24T21:29:40.686Z,12.41
2023-04-24T21:32:19.369Z,12.39
2023-04-24T21:34:52.199Z,12.35
2023-04-24T21:37:24.541Z,12.32
2023-04-24T21:39:57.267Z,12.29
2023-04-24T21:42:32.495Z,12.25
2023-04-24T21:45:05.892Z,12.22
2023-04-24T21:47:38.629Z,12.19
2023-04-24T21:50:15.377Z,12.16
2023-04-24T21:52:49.103Z,12.12
2023-04-24T21:55:23.710Z,12.09
2023-04-24T21:57:56.178Z,12.05
2023-04-24T22:00:29.439Z,12.02
2023-04-24T22:03:01.945Z,11.98
2023-04-24T22:05:35.632Z,11.94
2023-04-24T22:08:08.228Z,11.90
2023-04-24T22:10:47.296Z,11.87
2023-04-24T22:13:19.760Z,11.86
2023-04-24T22:15:55.113Z,11.86
2023-04-24T22:18:36.570Z,11.82
2023-04-24T22:21:17.947Z,11.80
2023-04-24T22:23:50.857Z,11.79
2023-04-24T22:26:24.313Z,11.75
2023-04-24T22:28:56.780Z,11.73
2023-04-24T22:31:29.610Z,11.71
2023-04-24T22:34:04.069Z,11.67
2023-04-24T22:36:37.333Z,11.65
2023-04-24T22:39:10.858Z,11.63
2023-04-24T22:41:44.490Z,11.60
2023-04-24T22:44:21.873Z,11.58
2023-04-24T22:46:54.464Z,11.56
2023-04-24T22:49:28.456Z,11.55
2023-04-24T22:51:59.530Z,11.52
2023-04-24T22:54:35.420Z,11.49
2023-04-24T22:57:08.368Z,11.48
2023-04-24T22:59:41.039Z,11.45
2023-04-24T23:02:16.177Z,11.43
2023-04-24T23:04:49.577Z,11.41
2023-04-24T23:07:22.512Z,11.38
2023-04-24T23:09:56.184Z,11.35
2023-04-24T23:12:32.977Z,11.32
2023-04-24T23:15:09.244Z,11.27
2023-04-24T23:17:42.623Z,11.23
2023-04-24T23:20:19.782Z,11.21
2023-04-24T23:22:53.820Z,11.19
2023-04-24T23:25:26.481Z,11.15
2023-04-24T23:27:58.988Z,11.10
2023-04-24T23:30:31.658Z,11.09
2023-04-24T23:33:04.549Z,11.10
2023-04-24T23:35:37.601Z,11.09
2023-04-24T23:38:12.592Z,11.10
2023-04-24T23:40:59.259Z,11.11
2023-04-24T23:43:31.920Z,11.07
2023-04-24T23:46:04.879Z,11.01
2023-04-24T23:48:37.859Z,11.02
2023-04-24T23:51:11.818Z,11.03
2023-04-24T23:53:44.730Z,11.05
2023-04-24T23:56:19.539Z,11.04
2023-04-24T23:58:52.692Z,11.04
